Time;durP1;ratioP1;P1;durP2;ratioP2;P2;SDS_P1;SDS_P2;PMS_P1;PMS_P2;Temp;Humidity;BMP_temperature;BMP_pressure;BME280_temperature;BME280_humidity;BME280_pressure;Samples;Min_cycle;Max_cycle;Signal;HPM_P1;HPM_P2
2021/05/12 00:01:33;;;;;;;5.45;3.60;;;11.60;68.60;;;;;;5115341;28;20472;-72
2021/05/12 00:03:58;;;;;;;5.13;3.00;;;11.50;68.70;;;;;;5104560;28;20557;-72
2021/05/12 00:06:25;;;;;;;6.80;3.17;;;11.50;68.70;;;;;;5115406;28;20032;-73
2021/05/12 00:08:51;;;;;;;8.65;6.68;;;11.50;68.70;;;;;;5091764;28;20356;-73
2021/05/12 00:11:17;;;;;;;5.88;4.97;;;11.50;68.80;;;;;;5093919;28;20035;-73
2021/05/12 00:13:42;;;;;;;6.00;2.75;;;11.50;69.00;;;;;;5093807;28;20035;-73
2021/05/12 00:16:08;;;;;;;6.13;2.63;;;11.40;69.20;;;;;;5090871;28;20044;-73
2021/05/12 00:18:40;;;;;;;5.40;2.78;;;11.40;69.40;;;;;;5091795;28;20030;-72
2021/05/12 00:21:09;;;;;;;5.15;2.70;;;11.40;69.40;;;;;;5092732;28;20116;-72
2021/05/12 00:23:57;;;;;;;5.20;2.42;;;11.40;69.70;;;;;;5092317;28;20028;-72
2021/05/12 00:26:23;;;;;;;4.72;2.47;;;11.30;69.90;;;;;;5092200;28;20035;-72
2021/05/12 00:28:48;;;;;;;5.25;2.53;;;11.30;70.10;;;;;;5092781;28;20458;-72
2021/05/12 00:31:17;;;;;;;5.00;2.80;;;11.20;70.20;;;;;;5093618;28;20094;-72
2021/05/12 00:33:42;;;;;;;7.78;3.65;;;11.20;70.40;;;;;;5093123;28;20035;-74
2021/05/12 00:36:08;;;;;;;3.67;2.80;;;11.20;70.50;;;;;;5091722;28;20032;-72
2021/05/12 00:38:34;;;;;;;4.10;2.72;;;11.10;70.60;;;;;;5091892;28;20458;-72
2021/05/12 00:40:59;;;;;;;2.55;2.10;;;11.10;70.70;;;;;;5091366;28;20044;-72
2021/05/12 00:43:25;;;;;;;4.60;3.33;;;11.10;70.90;;;;;;5091838;28;20486;-73
2021/05/12 00:45:51;;;;;;;7.25;2.90;;;11.00;71.10;;;;;;5093244;28;20489;-72
2021/05/12 00:48:16;;;;;;;5.55;2.50;;;11.00;71.30;;;;;;5092989;28;20024;-72
2021/05/12 00:50:42;;;;;;;4.68;3.78;;;11.00;71.40;;;;;;5092572;28;20020;-72
2021/05/12 00:53:08;;;;;;;5.18;3.15;;;10.90;71.60;;;;;;5090022;28;20024;-72
2021/05/12 00:55:34;;;;;;;5.32;3.20;;;10.90;71.70;;;;;;5072645;28;20037;-72
2021/05/12 00:58:00;;;;;;;4.32;2.95;;;10.90;71.90;;;;;;5077495;28;20027;-72
2021/05/12 01:00:28;;;;;;;4.75;2.55;;;10.80;72.00;;;;;;5088272;28;20179;-74
2021/05/12 01:02:54;;;;;;;12.07;6.20;;;10.80;72.20;;;;;;5072975;28;20020;-73
2021/05/12 01:05:27;;;;;;;4.93;3.22;;;10.80;72.40;;;;;;5071809;28;20467;-72
2021/05/12 01:07:52;;;;;;;6.75;2.50;;;10.70;72.50;;;;;;5091491;28;20115;-72
2021/05/12 01:10:19;;;;;;;5.25;3.05;;;10.70;72.60;;;;;;5087715;28;20166;-72
2021/05/12 01:12:45;;;;;;;5.00;3.40;;;10.70;72.70;;;;;;5071111;28;20036;-73
2021/05/12 01:15:13;;;;;;;6.07;2.72;;;10.60;72.80;;;;;;5072847;28;20048;-72
2021/05/12 01:17:39;;;;;;;4.90;2.63;;;10.60;73.00;;;;;;5072004;28;20348;-72
2021/05/12 01:20:05;;;;;;;5.45;2.42;;;10.60;73.30;;;;;;5084540;28;20032;-73
2021/05/12 01:22:31;;;;;;;4.63;2.78;;;10.60;73.40;;;;;;5085151;28;20029;-72
2021/05/12 01:24:56;;;;;;;1.98;1.70;;;10.60;73.50;;;;;;5081329;28;20086;-73
2021/05/12 01:27:22;;;;;;;6.20;2.40;;;10.50;73.90;;;;;;5089358;28;20374;-74
2021/05/12 01:29:48;;;;;;;4.80;2.50;;;10.50;73.40;;;;;;5088978;28;20139;-72
2021/05/12 01:32:16;;;;;;;4.32;2.50;;;10.50;73.40;;;;;;5090578;28;20024;-73
2021/05/12 01:34:41;;;;;;;3.22;2.25;;;10.40;73.40;;;;;;5071619;28;20032;-73
2021/05/12 01:37:07;;;;;;;3.67;2.35;;;10.40;73.50;;;;;;5085267;28;20066;-73
2021/05/12 01:39:32;;;;;;;3.55;2.05;;;10.30;73.60;;;;;;5091820;28;20019;-73
2021/05/12 01:41:58;;;;;;;3.58;2.35;;;10.30;73.80;;;;;;5094446;28;20032;-73
2021/05/12 01:44:24;;;;;;;3.28;2.40;;;10.30;74.00;;;;;;5090033;28;20456;-73
2021/05/12 01:46:50;;;;;;;3.95;2.60;;;10.20;74.20;;;;;;5075054;28;20028;-73
2021/05/12 01:49:15;;;;;;;2.92;2.00;;;10.20;74.50;;;;;;5089328;28;20455;-73
2021/05/12 01:51:41;;;;;;;4.68;2.10;;;10.20;74.70;;;;;;5082683;28;20447;-72
2021/05/12 01:54:09;;;;;;;5.18;2.72;;;10.20;74.80;;;;;;5078540;28;20040;-72
2021/05/12 01:56:36;;;;;;;5.18;2.38;;;10.20;75.00;;;;;;5077993;28;20028;-72
2021/05/12 01:59:03;;;;;;;4.07;2.25;;;10.20;75.00;;;;;;5081347;28;20120;-73
2021/05/12 02:01:29;;;;;;;5.25;2.20;;;10.20;75.10;;;;;;5078447;28;20106;-73
2021/05/12 02:03:55;;;;;;;3.72;2.35;;;10.20;75.30;;;;;;5086320;28;20048;-73
2021/05/12 02:06:20;;;;;;;4.07;2.20;;;10.20;75.70;;;;;;5075315;28;20021;-74
2021/05/12 02:08:46;;;;;;;2.75;1.85;;;10.20;76.10;;;;;;5078182;28;20103;-74
2021/05/12 02:11:12;;;;;;;3.30;2.03;;;10.20;76.30;;;;;;5075105;28;20055;-73
2021/05/12 02:13:37;;;;;;;3.40;1.50;;;10.20;76.40;;;;;;5075720;28;20074;-73
2021/05/12 02:16:06;;;;;;;2.00;1.23;;;10.30;76.50;;;;;;5075325;28;20153;-72
2021/05/12 02:18:32;;;;;;;1.75;1.50;;;10.30;76.30;;;;;;5079865;28;20024;-73
2021/05/12 02:20:58;;;;;;;2.22;1.55;;;10.40;76.40;;;;;;5076288;28;20031;-72
2021/05/12 02:23:25;;;;;;;5.55;1.75;;;10.50;76.30;;;;;;5075617;28;20033;-72
2021/05/12 02:25:51;;;;;;;3.05;1.92;;;10.50;76.00;;;;;;5075810;28;20029;-73
2021/05/12 02:28:17;;;;;;;4.95;1.70;;;10.60;75.70;;;;;;5080856;28;20038;-71
2021/05/12 02:30:43;;;;;;;1.88;1.50;;;10.70;75.60;;;;;;5080627;28;20073;-71
2021/05/12 02:33:10;;;;;;;2.38;1.77;;;10.70;76.10;;;;;;5084097;28;20024;-73
2021/05/12 02:35:36;;;;;;;4.82;3.38;;;10.80;75.40;;;;;;5087095;28;20039;-72
2021/05/12 02:38:02;;;;;;;5.32;3.10;;;10.80;75.40;;;;;;5074287;28;20024;-72
2021/05/12 02:40:28;;;;;;;5.55;3.75;;;11.00;75.30;;;;;;5073919;28;20036;-72
2021/05/12 02:42:55;;;;;;;3.80;2.90;;;11.00;74.90;;;;;;5083802;28;20024;-72
2021/05/12 02:45:21;;;;;;;9.43;5.30;;;11.10;74.90;;;;;;5085958;28;20390;-74
2021/05/12 02:47:57;;;;;;;5.20;3.22;;;11.10;74.70;;;;;;5076062;28;20024;-72
2021/05/12 02:50:25;;;;;;;4.30;3.13;;;11.10;74.60;;;;;;5074228;28;20021;-73
2021/05/12 02:52:52;;;;;;;2.90;1.83;;;11.10;74.50;;;;;;5073997;28;20031;-72
2021/05/12 02:55:18;;;;;;;2.42;1.48;;;11.10;75.20;;;;;;5077263;28;20436;-73
2021/05/12 02:57:44;;;;;;;2.30;1.38;;;11.10;74.60;;;;;;5077250;28;20023;-73
2021/05/12 03:00:10;;;;;;;2.47;1.40;;;11.10;74.70;;;;;;5074016;28;20021;-72
2021/05/12 03:02:36;;;;;;;1.98;1.30;;;11.10;74.70;;;;;;5072146;28;20090;-72
2021/05/12 03:05:04;;;;;;;5.10;2.05;;;11.20;74.80;;;;;;5074176;28;20074;-73
2021/05/12 03:07:29;;;;;;;2.58;1.25;;;11.30;74.80;;;;;;5090502;28;20530;-73
2021/05/12 03:09:56;;;;;;;4.97;1.63;;;11.40;75.30;;;;;;5086983;28;20028;-73
2021/05/12 03:12:21;;;;;;;2.13;1.52;;;11.50;74.30;;;;;;5075233;28;20028;-74
2021/05/12 03:14:47;;;;;;;3.05;1.83;;;11.60;73.80;;;;;;5074770;28;20056;-73
2021/05/12 03:17:13;;;;;;;6.35;1.70;;;11.70;73.60;;;;;;5087716;28;20457;-72
2021/05/12 03:19:39;;;;;;;2.75;1.50;;;11.80;73.30;;;;;;5091156;28;20451;-73
2021/05/12 03:22:04;;;;;;;7.78;2.42;;;11.80;72.50;;;;;;5083972;28;20024;-72
2021/05/12 03:24:30;;;;;;;4.93;2.17;;;11.70;72.00;;;;;;5075097;28;20029;-72
2021/05/12 03:26:56;;;;;;;4.53;1.70;;;11.50;72.00;;;;;;5077173;28;20032;-72
2021/05/12 03:29:21;;;;;;;2.85;1.27;;;11.40;72.10;;;;;;5093902;28;20038;-72
2021/05/12 03:31:47;;;;;;;2.30;1.70;;;11.30;72.50;;;;;;5079760;28;20522;-73
2021/05/12 03:34:13;;;;;;;4.65;1.50;;;11.20;72.90;;;;;;5091301;28;20025;-73
2021/05/12 03:36:38;;;;;;;2.28;1.40;;;11.20;74.00;;;;;;5092177;28;20024;-72
2021/05/12 03:39:05;;;;;;;4.97;1.45;;;11.20;73.80;;;;;;5090145;28;20024;-72
2021/05/12 03:41:31;;;;;;;5.78;1.80;;;11.20;74.20;;;;;;5088302;28;20032;-73
2021/05/12 03:43:57;;;;;;;3.78;1.80;;;11.20;74.20;;;;;;5093654;28;20379;-73
2021/05/12 03:46:22;;;;;;;5.30;1.90;;;11.30;74.20;;;;;;5083392;28;20385;-73
2021/05/12 03:48:48;;;;;;;3.67;1.48;;;11.40;74.30;;;;;;5096766;28;20461;-73
2021/05/12 03:51:14;;;;;;;3.63;1.70;;;11.40;74.10;;;;;;5095474;28;20024;-72
2021/05/12 03:53:39;;;;;;;3.42;1.70;;;11.50;73.90;;;;;;5086892;28;20047;-74
2021/05/12 03:56:05;;;;;;;4.22;1.70;;;11.50;73.80;;;;;;5094253;28;20036;-72
2021/05/12 03:58:31;;;;;;;2.80;1.50;;;11.50;73.80;;;;;;5078388;28;20031;-72
2021/05/12 04:00:58;;;;;;;2.75;1.67;;;11.50;73.60;;;;;;5086667;28;20020;-72
2021/05/12 04:03:24;;;;;;;3.17;2.10;;;11.60;73.60;;;;;;5101675;28;20093;-69
2021/05/12 04:05:49;;;;;;;3.15;1.98;;;11.60;73.70;;;;;;5075100;28;20470;-77
2021/05/12 04:08:15;;;;;;;1.50;1.40;;;11.70;73.60;;;;;;5089806;28;20028;-76
2021/05/12 04:10:41;;;;;;;1.70;1.20;;;11.70;73.60;;;;;;5085298;28;20044;-77
2021/05/12 04:13:06;;;;;;;3.33;1.85;;;11.70;73.40;;;;;;5091839;28;20032;-78
2021/05/12 04:15:32;;;;;;;2.90;1.65;;;11.80;73.50;;;;;;5077431;28;20048;-74
2021/05/12 04:17:58;;;;;;;3.72;1.17;;;11.80;73.30;;;;;;5071750;28;20032;-78
2021/05/12 04:20:24;;;;;;;2.75;1.60;;;11.90;73.00;;;;;;5087947;28;20024;-74
2021/05/12 04:22:49;;;;;;;2.58;1.50;;;11.90;72.80;;;;;;5081018;28;20035;-75
2021/05/12 04:25:20;;;;;;;1.70;1.40;;;11.90;72.70;;;;;;5079519;28;20425;-73
2021/05/12 04:27:47;;;;;;;6.65;3.22;;;11.90;72.60;;;;;;5098525;28;20050;-75
2021/05/12 04:30:17;;;;;;;10.63;5.38;;;11.80;72.70;;;;;;5089727;28;20451;-73
2021/05/12 04:32:43;;;;;;;8.52;2.85;;;11.80;73.00;;;;;;5091121;28;20435;-73
2021/05/12 04:35:10;;;;;;;7.32;3.40;;;11.80;73.10;;;;;;5089785;28;20536;-76
2021/05/12 04:37:35;;;;;;;4.85;2.10;;;11.80;73.40;;;;;;5094566;28;20031;-74
2021/05/12 04:40:02;;;;;;;10.55;2.85;;;11.90;73.30;;;;;;5098373;28;20016;-73
2021/05/12 04:42:28;;;;;;;3.95;2.00;;;12.00;73.40;;;;;;5089743;28;20020;-74
2021/05/12 04:44:53;;;;;;;3.95;1.85;;;12.00;73.40;;;;;;5095480;28;20023;-73
2021/05/12 04:47:20;;;;;;;3.53;1.90;;;12.10;73.50;;;;;;5086113;28;20033;-73
2021/05/12 04:49:46;;;;;;;4.30;2.10;;;12.40;73.80;;;;;;5075119;28;20029;-74
2021/05/12 04:52:13;;;;;;;6.82;2.30;;;12.70;73.50;;;;;;5077746;28;20486;-73
2021/05/12 04:54:39;;;;;;;9.32;3.13;;;12.90;72.70;;;;;;5096701;28;20036;-72
2021/05/12 04:57:05;;;;;;;6.45;2.20;;;13.10;72.10;;;;;;5093671;28;20032;-74
2021/05/12 04:59:30;;;;;;;6.13;2.00;;;13.20;71.60;;;;;;5087611;28;20469;-74
2021/05/12 05:01:57;;;;;;;5.38;1.80;;;13.20;71.00;;;;;;5094920;28;20036;-72
2021/05/12 05:04:23;;;;;;;7.57;2.55;;;13.20;70.70;;;;;;5079878;28;20033;-73
2021/05/12 05:06:49;;;;;;;4.85;2.90;;;13.20;70.50;;;;;;5077189;28;20040;-76
2021/05/12 05:09:15;;;;;;;11.35;3.38;;;13.10;70.30;;;;;;5079902;28;20398;-72
2021/05/12 05:11:41;;;;;;;4.88;2.78;;;13.10;70.10;;;;;;5083676;28;20069;-72
2021/05/12 05:14:07;;;;;;;10.63;5.00;;;13.10;70.20;;;;;;5088532;28;20052;-74
2021/05/12 05:16:33;;;;;;;5.53;2.25;;;13.00;70.30;;;;;;5087512;28;20051;-72
2021/05/12 05:18:59;;;;;;;7.07;3.75;;;13.00;70.10;;;;;;5087011;28;20134;-73
2021/05/12 05:21:26;;;;;;;11.68;4.70;;;12.90;70.00;;;;;;5088272;28;20024;-72
2021/05/12 05:23:53;;;;;;;6.80;2.28;;;12.90;70.20;;;;;;5095457;28;20024;-71
2021/05/12 05:26:19;;;;;;;11.32;2.50;;;12.90;70.20;;;;;;5101099;28;20455;-72
2021/05/12 05:28:45;;;;;;;7.40;5.75;;;12.90;70.20;;;;;;5079933;28;20120;-72
2021/05/12 05:31:10;;;;;;;15.00;11.82;;;12.90;70.20;;;;;;5084208;28;20024;-71
2021/05/12 05:33:36;;;;;;;12.98;10.63;;;12.90;69.80;;;;;;5090047;28;20030;-71
2021/05/12 05:36:02;;;;;;;12.20;9.93;;;12.80;69.60;;;;;;5101235;28;20032;-72
2021/05/12 05:38:28;;;;;;;8.88;5.50;;;12.60;69.80;;;;;;5093225;28;20146;-73
2021/05/12 05:40:54;;;;;;;9.80;5.43;;;12.60;70.40;;;;;;5088665;28;20033;-71
2021/05/12 05:43:19;;;;;;;6.30;4.03;;;12.60;70.50;;;;;;5097987;28;20115;-73
2021/05/12 05:45:45;;;;;;;5.75;2.00;;;12.60;70.90;;;;;;5092221;28;20036;-76
2021/05/12 05:48:11;;;;;;;4.38;1.85;;;12.60;70.90;;;;;;5095796;28;20359;-73
2021/05/12 05:50:37;;;;;;;2.38;1.40;;;12.70;70.70;;;;;;5099396;28;20061;-72
2021/05/12 05:53:03;;;;;;;1.85;1.02;;;12.80;70.20;;;;;;5091947;28;20017;-75
2021/05/12 05:55:29;;;;;;;1.15;0.90;;;12.80;69.60;;;;;;5088917;28;20028;-83
2021/05/12 05:57:55;;;;;;;2.35;1.00;;;12.80;69.30;;;;;;5094416;28;20253;-78
2021/05/12 06:00:22;;;;;;;2.65;2.25;;;12.80;69.30;;;;;;5088565;28;20024;-75
2021/05/12 06:02:48;;;;;;;2.30;1.05;;;12.90;69.20;;;;;;5092891;28;20027;-74
2021/05/12 06:05:13;;;;;;;4.70;3.42;;;13.00;69.00;;;;;;5086377;28;20128;-73
2021/05/12 06:07:40;;;;;;;1.35;1.20;;;13.30;69.00;;;;;;5081198;28;20477;-74
2021/05/12 06:10:07;;;;;;;3.08;1.92;;;13.60;68.40;;;;;;5075562;28;20020;-75
2021/05/12 06:12:33;;;;;;;5.80;3.55;;;13.80;67.50;;;;;;5080373;28;20043;-75
2021/05/12 06:14:59;;;;;;;4.82;3.75;;;13.80;67.00;;;;;;5080692;28;20052;-75
2021/05/12 06:17:26;;;;;;;5.70;4.40;;;13.90;66.40;;;;;;5093289;28;20436;-75
2021/05/12 06:19:52;;;;;;;9.15;7.07;;;13.90;66.10;;;;;;5088655;28;20027;-75
2021/05/12 06:22:18;;;;;;;15.00;11.43;;;14.00;66.50;;;;;;5081048;28;20450;-75
2021/05/12 06:24:44;;;;;;;20.80;18.55;;;14.30;66.50;;;;;;5094157;28;20608;-75
2021/05/12 06:27:10;;;;;;;17.63;14.23;;;14.40;66.10;;;;;;5095578;28;20024;-75
2021/05/12 06:29:40;;;;;;;20.50;16.63;;;14.60;65.10;;;;;;5085302;28;20102;-75
2021/05/12 06:32:07;;;;;;;17.25;13.20;;;14.60;64.50;;;;;;5097295;28;20027;-74
2021/05/12 06:34:35;;;;;;;23.33;19.48;;;14.60;64.10;;;;;;5086700;28;20043;-74
2021/05/12 06:37:02;;;;;;;5.05;4.13;;;14.50;63.70;;;;;;5089662;28;20477;-74
2021/05/12 06:39:28;;;;;;;14.45;12.65;;;14.30;63.20;;;;;;5098876;28;20027;-74
2021/05/12 06:41:54;;;;;;;12.63;11.32;;;14.10;63.80;;;;;;5087582;28;20020;-75
2021/05/12 06:44:22;;;;;;;12.95;10.63;;;14.00;63.90;;;;;;5099060;28;20028;-74
2021/05/12 06:46:47;;;;;;;8.88;5.50;;;13.90;63.90;;;;;;5083866;28;20096;-74
2021/05/12 06:49:13;;;;;;;6.88;5.30;;;13.70;64.20;;;;;;5081560;28;20453;-75
2021/05/12 06:51:39;;;;;;;7.03;4.00;;;13.60;64.90;;;;;;5091241;28;20052;-75
2021/05/12 06:54:05;;;;;;;15.48;13.88;;;13.70;65.30;;;;;;5095916;28;20119;-75
2021/05/12 06:56:31;;;;;;;8.32;5.72;;;13.80;65.20;;;;;;5087997;28;20389;-75
2021/05/12 06:58:57;;;;;;;5.00;2.40;;;13.80;64.90;;;;;;5095379;28;20028;-77
2021/05/12 07:01:22;;;;;;;3.35;1.63;;;13.90;64.90;;;;;;5092288;28;20026;-75
2021/05/12 07:03:48;;;;;;;4.25;1.30;;;13.90;64.70;;;;;;5097389;28;20020;-74
2021/05/12 07:06:14;;;;;;;8.52;6.03;;;13.90;64.40;;;;;;5080020;28;20025;-75
2021/05/12 07:08:40;;;;;;;6.68;2.25;;;13.90;64.40;;;;;;5087723;28;20115;-74
2021/05/12 07:11:06;;;;;;;9.35;6.30;;;13.90;64.70;;;;;;5073873;28;20029;-74
2021/05/12 07:13:32;;;;;;;4.00;2.97;;;13.90;64.70;;;;;;5079346;28;20079;-75
2021/05/12 07:15:58;;;;;;;5.25;2.10;;;14.00;64.70;;;;;;5094203;28;20201;-75
2021/05/12 07:18:24;;;;;;;3.88;2.05;;;14.00;65.00;;;;;;5081124;28;20025;-75
2021/05/12 07:20:49;;;;;;;5.97;2.10;;;14.00;64.70;;;;;;5087236;28;20016;-74
2021/05/12 07:23:22;;;;;;;7.32;2.42;;;13.90;64.60;;;;;;5075533;28;20050;-75
2021/05/12 07:25:48;;;;;;;16.88;12.05;;;14.00;64.90;;;;;;5074289;28;20383;-74
2021/05/12 07:28:14;;;;;;;27.77;23.63;;;13.90;64.70;;;;;;5088710;28;20024;-74
2021/05/12 07:30:41;;;;;;;29.40;23.75;;;13.90;64.90;;;;;;5076520;28;20153;-74
2021/05/12 07:33:07;;;;;;;38.10;31.30;;;13.80;65.10;;;;;;5075984;28;20032;-73
2021/05/12 07:35:33;;;;;;;35.88;29.65;;;13.80;65.30;;;;;;5079580;28;20036;-73
2021/05/12 07:37:59;;;;;;;10.88;7.95;;;13.90;65.80;;;;;;5090429;28;20078;-74
2021/05/12 07:40:25;;;;;;;14.98;13.35;;;14.00;65.60;;;;;;5079570;28;20435;-76
2021/05/12 07:42:51;;;;;;;8.27;6.68;;;14.30;65.20;;;;;;5089893;28;20040;-74
2021/05/12 07:45:17;;;;;;;26.80;21.95;;;14.40;64.30;;;;;;5094875;28;20039;-74
2021/05/12 07:47:43;;;;;;;29.77;26.60;;;14.50;64.10;;;;;;5079925;28;20502;-73
2021/05/12 07:50:13;;;;;;;19.58;17.42;;;14.70;64.00;;;;;;5088779;28;20024;-74
2021/05/12 07:52:38;;;;;;;11.95;9.52;;;14.90;63.80;;;;;;5093363;28;20466;-74
2021/05/12 07:55:05;;;;;;;3.85;2.28;;;15.00;63.50;;;;;;5076874;28;20040;-74
2021/05/12 07:57:30;;;;;;;7.03;5.20;;;15.00;62.30;;;;;;5088789;28;20422;-74
2021/05/12 07:59:56;;;;;;;5.90;3.53;;;14.90;61.90;;;;;;5073826;28;20017;-75
2021/05/12 08:02:22;;;;;;;4.13;3.05;;;14.80;62.10;;;;;;5074202;28;20485;-73
2021/05/12 08:04:47;;;;;;;4.25;2.67;;;14.80;62.10;;;;;;5074396;28;20036;-75
2021/05/12 08:07:13;;;;;;;6.68;4.72;;;14.80;62.20;;;;;;5082752;28;20461;-74
2021/05/12 08:09:39;;;;;;;14.60;11.13;;;15.00;62.60;;;;;;5094449;28;20083;-75
2021/05/12 08:12:05;;;;;;;23.67;16.27;;;15.30;63.20;;;;;;5088369;28;20025;-74
2021/05/12 08:14:31;;;;;;;21.23;14.98;;;15.90;62.40;;;;;;5072530;28;20055;-73
2021/05/12 08:16:56;;;;;;;17.75;14.20;;;16.10;61.00;;;;;;5086773;28;20025;-74
2021/05/12 08:19:22;;;;;;;20.63;16.20;;;16.20;60.70;;;;;;5074141;28;20034;-72
2021/05/12 08:21:48;;;;;;;19.13;16.40;;;16.30;60.00;;;;;;5090243;28;20027;-74
2021/05/12 08:24:14;;;;;;;19.00;14.55;;;16.70;60.90;;;;;;5094130;28;20081;-74
2021/05/12 08:26:40;;;;;;;10.52;8.60;;;17.70;61.70;;;;;;5092734;28;20052;-75
2021/05/12 08:29:07;;;;;;;9.40;7.90;;;18.70;58.80;;;;;;5087724;28;20063;-75
2021/05/12 08:31:34;;;;;;;8.02;6.72;;;19.70;57.60;;;;;;5074152;28;20052;-73
2021/05/12 08:34:03;;;;;;;3.45;2.05;;;20.50;55.10;;;;;;5073587;28;20029;-74
2021/05/12 08:36:28;;;;;;;15.60;13.70;;;20.90;51.30;;;;;;5073371;28;20433;-74
2021/05/12 08:38:54;;;;;;;16.38;10.98;;;20.50;51.00;;;;;;5078325;28;20020;-74
2021/05/12 08:41:20;;;;;;;23.80;21.52;;;20.50;51.60;;;;;;5094358;28;20058;-74
2021/05/12 08:43:46;;;;;;;8.27;7.40;;;20.80;51.30;;;;;;5092652;28;20063;-74
2021/05/12 08:46:19;;;;;;;3.17;1.80;;;21.20;49.40;;;;;;5093861;28;20043;-74
2021/05/12 08:48:46;;;;;;;3.45;1.73;;;21.20;47.20;;;;;;5077937;28;20478;-74
2021/05/12 08:51:12;;;;;;;4.32;2.13;;;21.00;46.40;;;;;;5072402;28;20082;-74
2021/05/12 08:53:37;;;;;;;2.65;1.58;;;20.70;47.10;;;;;;5085906;28;20027;-74
2021/05/12 08:56:05;;;;;;;2.97;1.80;;;20.70;47.20;;;;;;5087888;28;20032;-74
2021/05/12 08:58:31;;;;;;;2.08;1.60;;;20.90;47.70;;;;;;5082573;28;20020;-74
2021/05/12 09:00:57;;;;;;;3.78;1.50;;;21.00;46.60;;;;;;5076219;28;20020;-74
2021/05/12 09:03:26;;;;;;;2.70;1.67;;;20.80;46.50;;;;;;5075891;28;20016;-74
2021/05/12 09:05:52;;;;;;;3.15;1.45;;;20.70;46.90;;;;;;5085152;28;20020;-74
2021/05/12 09:08:18;;;;;;;3.80;1.70;;;20.60;47.00;;;;;;5088927;28;20028;-74
2021/05/12 09:10:44;;;;;;;4.72;2.25;;;20.70;47.60;;;;;;5073076;28;20035;-74
2021/05/12 09:13:28;;;;;;;3.72;1.73;;;20.70;47.50;;;;;;5077934;28;20047;-74
2021/05/12 09:15:54;;;;;;;3.55;1.75;;;20.10;47.20;;;;;;5082189;28;20132;-74
2021/05/12 09:18:28;;;;;;;3.95;2.10;;;19.80;49.10;;;;;;5087565;28;20095;-74
2021/05/12 09:20:53;;;;;;;2.53;2.05;;;20.10;49.40;;;;;;5082712;28;20028;-74
2021/05/12 09:23:22;;;;;;;16.10;14.43;;;20.20;48.70;;;;;;5079012;28;20496;-74
2021/05/12 09:25:53;;;;;;;32.60;29.13;;;19.80;49.10;;;;;;5094773;28;20028;-74
2021/05/12 09:28:21;;;;;;;22.05;19.98;;;19.50;49.70;;;;;;5079299;28;20028;-74
2021/05/12 09:30:49;;;;;;;26.55;23.95;;;19.50;49.70;;;;;;5072052;28;20019;-74
2021/05/12 09:33:30;;;;;;;20.45;18.45;;;19.40;49.90;;;;;;5088152;28;20343;-74
2021/05/12 09:35:57;;;;;;;19.83;18.08;;;19.30;49.90;;;;;;5076575;28;20032;-74
2021/05/12 09:38:25;;;;;;;10.98;9.93;;;19.60;50.80;;;;;;5075087;28;20024;-74
2021/05/12 09:41:02;;;;;;;4.43;4.00;;;20.00;49.50;;;;;;5092532;28;20020;-74
2021/05/12 09:43:29;;;;;;;2.20;1.50;;;20.20;48.80;;;;;;5086704;28;20025;-74
2021/05/12 09:46:15;;;;;;;3.25;1.50;;;20.60;47.60;;;;;;5080553;28;20505;-73
2021/05/12 09:48:47;;;;;;;5.57;3.03;;;21.00;47.00;;;;;;5087931;28;20108;-74
2021/05/12 09:51:19;;;;;;;11.88;8.32;;;21.20;46.10;;;;;;5079091;28;20413;-74
2021/05/12 09:54:04;;;;;;;8.75;6.53;;;21.20;45.80;;;;;;5075590;28;20030;-74
2021/05/12 09:56:41;;;;;;;12.00;10.80;;;21.50;46.00;;;;;;5084259;28;20032;-74
2021/05/12 09:59:09;;;;;;;10.32;8.75;;;22.10;46.20;;;;;;5087336;28;20569;-74
2021/05/12 10:01:42;;;;;;;2.58;1.48;;;22.20;44.90;;;;;;5091744;28;20527;-74
2021/05/12 10:04:29;;;;;;;1.92;1.38;;;22.10;43.70;;;;;;5080694;28;20028;-74
2021/05/12 10:06:56;;;;;;;3.13;1.50;;;21.30;43.40;;;;;;5077242;28;20020;-74
2021/05/12 10:09:26;;;;;;;3.80;1.73;;;20.20;44.10;;;;;;5093292;28;20028;-74
2021/05/12 10:12:22;;;;;;;7.72;2.13;;;19.70;46.40;;;;;;5074168;28;20021;-74
2021/05/12 10:14:51;;;;;;;2.33;1.90;;;20.00;47.50;;;;;;5076484;28;20075;-74
2021/05/12 10:17:19;;;;;;;1.92;1.50;;;20.50;47.90;;;;;;5088263;28;20037;-74
2021/05/12 10:19:47;;;;;;;1.95;1.30;;;21.00;47.20;;;;;;5075130;28;20029;-74
2021/05/12 10:22:13;;;;;;;1.30;1.20;;;21.40;46.10;;;;;;5081756;28;20330;-74
2021/05/12 10:24:41;;;;;;;5.45;2.92;;;21.40;44.90;;;;;;5084437;28;20059;-74
2021/05/12 10:27:22;;;;;;;1.70;1.40;;;21.60;45.80;;;;;;5089187;28;20024;-75
2021/05/12 10:29:56;;;;;;;8.43;6.28;;;21.80;44.10;;;;;;5076371;28;20025;-74
2021/05/12 10:32:29;;;;;;;7.07;3.38;;;21.10;45.20;;;;;;5090438;28;20024;-74
2021/05/12 10:34:59;;;;;;;7.20;4.70;;;21.10;45.40;;;;;;5074753;28;20398;-73
2021/05/12 10:37:28;;;;;;;10.05;2.90;;;20.70;45.80;;;;;;5075878;28;20024;-74
2021/05/12 10:40:00;;;;;;;7.05;3.25;;;20.40;46.40;;;;;;5087569;28;20103;-73
2021/05/12 10:42:47;;;;;;;4.95;2.45;;;20.00;47.50;;;;;;5094784;28;20165;-74
2021/05/12 10:45:43;;;;;;;5.82;2.67;;;19.90;48.00;;;;;;5095145;28;20094;-74
2021/05/12 10:48:33;;;;;;;4.78;2.80;;;20.70;48.40;;;;;;5082794;28;20360;-73
2021/05/12 10:51:27;;;;;;;7.18;3.38;;;21.40;46.90;;;;;;5074517;28;20017;-74
2021/05/12 10:53:55;;;;;;;4.60;4.18;;;21.90;46.50;;;;;;5070633;28;20045;-75
2021/05/12 10:56:36;;;;;;;10.57;7.85;;;22.50;45.40;;;;;;5074521;28;20032;-74
2021/05/12 10:59:15;;;;;;;10.00;8.52;;;22.80;44.30;;;;;;5089764;28;20127;-74
2021/05/12 11:01:54;;;;;;;11.57;8.27;;;23.00;44.60;;;;;;5094569;28;20034;-74
2021/05/12 11:04:22;;;;;;;15.23;11.68;;;23.50;44.10;;;;;;5078100;28;20051;-74
2021/05/12 11:06:50;;;;;;;26.83;23.00;;;23.60;43.50;;;;;;5074071;28;20032;-74
2021/05/12 11:09:40;;;;;;;16.23;14.00;;;23.70;43.00;;;;;;5086840;28;20027;-74
2021/05/12 11:12:07;;;;;;;8.43;7.00;;;23.50;43.20;;;;;;5081943;28;20020;-74
2021/05/12 11:14:38;;;;;;;18.85;16.77;;;23.10;42.90;;;;;;5081399;28;20056;-75
2021/05/12 11:17:13;;;;;;;19.48;17.50;;;22.50;43.80;;;;;;5079429;28;20065;-74
2021/05/12 11:19:43;;;;;;;17.85;16.05;;;21.70;44.40;;;;;;5094912;28;20024;-74
2021/05/12 11:22:34;;;;;;;11.70;8.35;;;21.00;45.10;;;;;;5074782;28;20467;-74
2021/05/12 11:33:27;;;;;;;5.63;3.57;;;18.80;48.10;;;;;;5098093;28;20031;-73
2021/05/12 11:36:00;;;;;;;6.80;3.58;;;18.50;48.50;;;;;;5083316;28;20363;-72
2021/05/12 11:38:27;;;;;;;3.97;3.35;;;18.30;49.10;;;;;;5086763;28;20016;-74
2021/05/12 11:41:09;;;;;;;5.28;4.43;;;18.20;49.70;;;;;;5096991;28;20021;-73
2021/05/12 11:43:47;;;;;;;9.43;8.15;;;18.00;51.10;;;;;;5085209;28;20032;-73
2021/05/12 11:46:18;;;;;;;6.38;4.20;;;18.10;51.80;;;;;;5082850;28;20032;-74
2021/05/12 11:48:47;;;;;;;6.47;5.30;;;18.30;51.50;;;;;;5086668;28;20036;-74
2021/05/12 11:51:27;;;;;;;11.05;8.48;;;18.40;51.50;;;;;;5076746;28;20048;-73
2021/05/12 11:53:53;;;;;;;18.67;16.77;;;18.50;51.00;;;;;;5091597;28;20023;-74
2021/05/12 11:56:19;;;;;;;14.10;11.18;;;18.50;50.30;;;;;;5089160;28;20024;-73
2021/05/12 11:58:55;;;;;;;8.50;7.18;;;18.30;50.60;;;;;;5074588;28;20036;-73
2021/05/12 12:01:21;;;;;;;9.05;8.18;;;18.30;50.50;;;;;;5073199;28;20039;-73
2021/05/12 12:06:44;;;;;;;6.47;5.88;;;18.30;50.20;;;;;;5076366;28;20035;-73
2021/05/12 12:09:14;;;;;;;8.55;6.53;;;18.30;50.80;;;;;;5083338;28;20343;-73
2021/05/12 12:11:41;;;;;;;15.05;13.32;;;18.40;50.80;;;;;;5075600;28;20466;-73
2021/05/12 12:14:07;;;;;;;19.20;17.15;;;18.40;50.30;;;;;;5082990;28;20051;-73
2021/05/12 12:16:35;;;;;;;18.10;16.15;;;18.30;50.20;;;;;;5092976;28;20036;-73
2021/05/12 12:19:17;;;;;;;15.82;14.13;;;18.20;50.50;;;;;;5073918;28;20021;-74
2021/05/12 12:21:45;;;;;;;29.05;26.00;;;18.30;51.00;;;;;;5071802;28;20033;-74
2021/05/12 12:24:18;;;;;;;23.25;20.52;;;18.40;51.20;;;;;;5071881;28;20032;-74
2021/05/12 12:26:50;;;;;;;40.90;36.42;;;18.50;51.50;;;;;;5073555;28;20024;-74
2021/05/12 12:29:21;;;;;;;9.85;7.78;;;18.60;51.10;;;;;;5074068;28;20082;-74
2021/05/12 12:31:49;;;;;;;12.73;10.15;;;18.50;50.20;;;;;;5073901;28;20027;-74
2021/05/12 12:34:27;;;;;;;24.67;22.00;;;18.30;50.20;;;;;;5087059;28;20485;-74
2021/05/12 12:37:15;;;;;;;29.23;26.13;;;18.00;50.80;;;;;;5071578;28;20024;-74
2021/05/12 12:39:51;;;;;;;14.93;11.85;;;17.90;51.40;;;;;;5073711;28;20025;-73
2021/05/12 12:42:27;;;;;;;7.13;5.22;;;17.80;51.60;;;;;;5073357;28;20016;-73
2021/05/12 12:44:54;;;;;;;14.02;6.68;;;17.90;51.50;;;;;;5084330;28;20035;-73
2021/05/12 12:47:21;;;;;;;9.70;3.95;;;18.20;51.50;;;;;;5075843;28;20028;-75
2021/05/12 12:49:56;;;;;;;8.63;7.28;;;18.50;51.00;;;;;;5073591;28;20052;-74
2021/05/12 12:52:33;;;;;;;13.93;12.37;;;18.60;50.90;;;;;;5072182;28;20031;-73
2021/05/12 12:55:06;;;;;;;12.95;7.95;;;18.40;50.30;;;;;;5073611;28;20028;-74
2021/05/12 12:57:39;;;;;;;14.77;7.20;;;18.20;50.60;;;;;;5072074;28;20035;-73
2021/05/12 13:00:29;;;;;;;24.02;17.15;;;18.10;50.90;;;;;;5073683;28;20017;-74